createdAt,value
2018-12-13T00:02:10.495Z,12.43
2018-12-13T00:04:37.435Z,12.60
2018-12-13T00:07:04.415Z,12.83
2018-12-13T00:09:31.495Z,12.97
2018-12-13T00:11:58.597Z,13.77
2018-12-13T00:14:25.634Z,12.53
2018-12-13T00:16:52.594Z,12.70
2018-12-13T00:19:19.573Z,13.53
2018-12-13T00:21:46.654Z,13.93
2018-12-13T00:24:13.715Z,12.33
2018-12-13T00:26:40.677Z,13.73
2018-12-13T00:29:07.754Z,13.47
2018-12-13T00:31:34.754Z,13.53
2018-12-13T00:34:01.735Z,12.63
2018-12-13T00:36:28.754Z,13.30
2018-12-13T00:39:04.813Z,12.40
2018-12-13T00:41:31.914Z,13.10
2018-12-13T00:43:58.955Z,12.53
2018-12-13T00:46:25.994Z,12.97
2018-12-13T00:48:53.054Z,11.97
2018-12-13T00:51:20.075Z,12.70
2018-12-13T00:53:47.117Z,12.30
2018-12-13T00:56:14.075Z,13.13
2018-12-13T00:58:41.393Z,12.17
2018-12-13T01:01:08.375Z,13.07
2018-12-13T01:03:35.436Z,13.80
2018-12-13T01:06:02.435Z,14.97
2018-12-13T01:08:29.475Z,13.67
2018-12-13T01:10:56.534Z,13.77
2018-12-13T01:13:23.535Z,14.63
2018-12-13T01:15:50.534Z,14.97
2018-12-13T01:18:17.594Z,14.83
2018-12-13T01:20:44.635Z,15.83
2018-12-13T01:23:11.794Z,15.37
2018-12-13T01:25:38.875Z,15.70
2018-12-13T01:28:06.276Z,15.63
2018-12-13T01:30:33.255Z,16.73
2018-12-13T01:33:00.236Z,16.40
2018-12-13T01:35:27.653Z,17.67
2018-12-13T01:38:01.596Z,17.33
2018-12-13T01:40:28.677Z,17.23
2018-12-13T01:42:55.719Z,17.83
2018-12-13T01:45:22.675Z,18.43
2018-12-13T01:47:50.455Z,17.43
2018-12-13T01:50:17.435Z,18.70
2018-12-13T01:52:44.395Z,18.13
2018-12-13T01:55:11.436Z,19.13
2018-12-13T01:57:38.415Z,18.37
2018-12-13T02:00:12.535Z,18.40
2018-12-13T02:02:46.637Z,18.13
2018-12-13T02:05:13.695Z,19.60
2018-12-13T02:07:40.696Z,18.97
2018-12-13T02:10:07.855Z,18.37
2018-12-13T02:12:34.839Z,19.83
2018-12-13T02:15:01.916Z,18.53
2018-12-13T02:17:28.856Z,20.40
2018-12-13T02:20:03.855Z,20.00
2018-12-13T02:22:30.895Z,20.07
2018-12-13T02:24:57.974Z,19.17
2018-12-13T02:27:24.935Z,20.27
2018-12-13T02:29:52.055Z,20.03
2018-12-13T02:32:19.036Z,20.73
2018-12-13T02:34:46.159Z,20.53
2018-12-13T02:37:13.176Z,20.50
2018-12-13T02:39:40.452Z,21.63
2018-12-13T02:42:07.669Z,20.97
2018-12-13T02:44:34.734Z,20.67
2018-12-13T02:47:01.915Z,21.80
2018-12-13T02:49:28.931Z,20.43
2018-12-13T02:51:55.911Z,20.43
2018-12-13T02:54:22.892Z,22.67
2018-12-13T02:56:49.931Z,22.30
2018-12-13T02:59:16.911Z,21.57
2018-12-13T03:01:43.991Z,20.43
2018-12-13T03:04:10.972Z,21.80
2018-12-13T03:06:38.013Z,22.57
2018-12-13T03:09:06.733Z,21.03
2018-12-13T03:11:33.672Z,21.50
2018-12-13T03:14:00.693Z,21.23
2018-12-13T03:16:27.950Z,21.03
2018-12-13T03:18:55.191Z,22.30
2018-12-13T03:21:22.239Z,22.30
2018-12-13T03:23:49.335Z,22.67
2018-12-13T03:26:16.452Z,22.80
2018-12-13T03:28:43.646Z,21.73
2018-12-13T03:31:10.694Z,22.77
2018-12-13T03:33:37.771Z,23.37
2018-12-13T03:36:04.773Z,22.37
2018-12-13T03:38:31.691Z,21.87
2018-12-13T03:40:58.692Z,21.40
2018-12-13T03:43:25.653Z,21.40
2018-12-13T03:45:52.673Z,22.13
2018-12-13T03:48:19.672Z,21.87
2018-12-13T03:50:46.652Z,23.27
2018-12-13T03:53:13.573Z,22.27
2018-12-13T03:55:40.554Z,21.80
2018-12-13T03:58:07.591Z,21.33
2018-12-13T04:00:35.113Z,21.93
2018-12-13T04:03:02.071Z,22.53
2018-12-13T04:05:29.051Z,22.67
2018-12-13T04:07:56.051Z,20.00
2018-12-13T04:10:23.151Z,22.03
2018-12-13T04:12:50.132Z,23.10
2018-12-13T04:15:17.132Z,22.87
2018-12-13T04:17:44.075Z,23.13
2018-12-13T04:20:11.114Z,21.30
2018-12-13T04:22:38.113Z,21.67
2018-12-13T04:25:05.225Z,20.70
2018-12-13T04:27:32.231Z,20.47
2018-12-13T04:29:59.191Z,22.93
2018-12-13T04:32:26.198Z,22.03
2018-12-13T04:34:53.174Z,22.93
2018-12-13T04:37:20.150Z,22.63
2018-12-13T04:39:47.150Z,23.23
2018-12-13T04:42:14.152Z,22.10
2018-12-13T04:44:41.091Z,22.03
2018-12-13T04:47:08.092Z,22.07
2018-12-13T04:49:35.078Z,21.17
2018-12-13T04:52:02.059Z,20.93
2018-12-13T04:54:29.031Z,21.67
2018-12-13T04:56:56.036Z,20.63
2018-12-13T04:59:23.051Z,20.37
2018-12-13T05:01:50.030Z,21.30
2018-12-13T05:04:16.971Z,21.83
2018-12-13T05:06:44.029Z,21.27
2018-12-13T05:09:11.073Z,21.87
2018-12-13T05:11:38.131Z,21.60
2018-12-13T05:14:05.090Z,21.93
2018-12-13T05:16:32.051Z,20.87
2018-12-13T05:18:59.070Z,21.17
2018-12-13T05:21:26.033Z,20.23
2018-12-13T05:23:53.050Z,21.10
2018-12-13T05:26:19.970Z,22.13
2018-12-13T05:28:46.970Z,22.00
2018-12-13T05:31:13.972Z,22.27
2018-12-13T05:33:40.950Z,21.70
2018-12-13T05:36:14.950Z,22.17
2018-12-13T05:38:42.000Z,22.03
2018-12-13T05:41:08.972Z,22.47
2018-12-13T05:43:35.971Z,22.50
2018-12-13T05:46:03.010Z,24.47
2018-12-13T05:48:29.970Z,23.60
2018-12-13T05:50:57.495Z,23.43
2018-12-13T05:53:24.521Z,24.10
2018-12-13T05:55:51.460Z,24.40
2018-12-13T05:58:18.420Z,23.33
2018-12-13T06:00:45.440Z,24.03
2018-12-13T06:03:12.461Z,22.53
2018-12-13T06:05:39.501Z,23.20
2018-12-13T06:08:06.542Z,22.97
2018-12-13T06:10:34.121Z,23.27
2018-12-13T06:13:01.082Z,21.57
2018-12-13T06:15:28.041Z,21.70
2018-12-13T06:17:56.100Z,22.70
2018-12-13T06:20:23.081Z,21.93
2018-12-13T06:22:50.061Z,23.20
2018-12-13T06:25:17.142Z,20.63
2018-12-13T06:27:44.061Z,20.83
2018-12-13T06:30:11.122Z,19.33
2018-12-13T06:32:38.141Z,21.43
2018-12-13T06:35:05.461Z,19.47
2018-12-13T06:37:32.442Z,20.33
2018-12-13T06:39:59.463Z,20.03
2018-12-13T06:42:26.461Z,18.83
2018-12-13T06:44:53.481Z,18.50
2018-12-13T06:47:20.442Z,20.97
2018-12-13T06:49:47.422Z,18.77
2018-12-13T06:52:14.382Z,18.50
2018-12-13T06:54:41.406Z,19.60
2018-12-13T06:57:08.361Z,19.00
2018-12-13T06:59:35.341Z,19.53
2018-12-13T07:02:02.702Z,19.43
2018-12-13T07:04:29.682Z,18.67
2018-12-13T07:06:56.700Z,20.00
2018-12-13T07:09:30.681Z,19.43
2018-12-13T07:11:57.762Z,19.57
2018-12-13T07:14:24.782Z,19.37
2018-12-13T07:16:51.882Z,19.60
2018-12-13T07:19:18.941Z,19.30
2018-12-13T07:21:45.982Z,19.03
2018-12-13T07:24:12.981Z,19.03
2018-12-13T07:26:40.121Z,19.50
2018-12-13T07:29:07.182Z,18.83
2018-12-13T07:31:34.282Z,19.47
2018-12-13T07:34:01.299Z,18.87
2018-12-13T07:36:28.259Z,18.97
2018-12-13T07:38:55.198Z,19.40
2018-12-13T07:41:22.258Z,18.93
2018-12-13T07:43:49.217Z,19.23
2018-12-13T07:46:16.258Z,19.77
2018-12-13T07:48:43.298Z,19.77
2018-12-13T07:51:10.339Z,19.30
2018-12-13T07:53:37.396Z,18.40
2018-12-13T07:56:04.478Z,17.27
2018-12-13T07:58:31.397Z,18.37
2018-12-13T08:00:58.442Z,17.53
2018-12-13T08:03:25.483Z,18.73
2018-12-13T08:05:52.518Z,18.37
2018-12-13T08:08:21.048Z,18.57
2018-12-13T08:10:48.318Z,19.07
2018-12-13T08:13:15.300Z,18.10
2018-12-13T08:15:42.298Z,20.30
2018-12-13T08:18:09.299Z,19.30
2018-12-13T08:20:36.218Z,19.07
2018-12-13T08:23:03.619Z,18.70
2018-12-13T08:25:30.679Z,19.23
2018-12-13T08:27:57.678Z,19.63
2018-12-13T08:30:24.757Z,20.67
2018-12-13T08:32:51.679Z,18.90
2018-12-13T08:35:18.658Z,18.07
2018-12-13T08:37:52.558Z,17.77
2018-12-13T08:40:20.041Z,19.37
2018-12-13T08:42:47.519Z,18.43
2018-12-13T08:45:14.479Z,18.57
2018-12-13T08:47:41.479Z,19.10
2018-12-13T08:50:08.638Z,19.87
2018-12-13T08:52:35.679Z,18.90
2018-12-13T08:55:03.519Z,20.60
2018-12-13T08:57:30.518Z,19.63
2018-12-13T08:59:57.519Z,21.53
2018-12-13T09:02:24.518Z,19.80
2018-12-13T09:04:51.518Z,20.00
2018-12-13T09:07:18.518Z,18.40
2018-12-13T09:09:45.519Z,20.43
2018-12-13T09:12:12.639Z,19.37
2018-12-13T09:14:39.660Z,20.30
2018-12-13T09:17:06.719Z,21.13
2018-12-13T09:19:33.743Z,20.87
2018-12-13T09:22:00.718Z,20.37
2018-12-13T09:24:27.700Z,20.23
2018-12-13T09:26:54.699Z,19.67
2018-12-13T09:29:21.659Z,21.57
2018-12-13T09:31:48.639Z,20.63
2018-12-13T09:34:15.619Z,18.80
2018-12-13T09:36:42.644Z,19.00
2018-12-13T09:39:09.659Z,20.20
2018-12-13T09:41:36.639Z,17.13
2018-12-13T09:44:03.679Z,21.37
2018-12-13T09:46:30.759Z,19.60
2018-12-13T09:48:57.719Z,20.23
2018-12-13T09:51:31.940Z,20.83
2018-12-13T09:53:58.959Z,20.83
2018-12-13T09:56:25.978Z,21.27
2018-12-13T09:58:53.082Z,22.93
2018-12-13T10:01:20.240Z,21.10
2018-12-13T10:03:47.419Z,19.37
2018-12-13T10:06:14.418Z,22.00
2018-12-13T10:08:46.294Z,19.73
2018-12-13T10:11:11.179Z,17.70
2018-12-13T10:13:38.239Z,19.70
2018-12-13T10:16:05.240Z,16.87
2018-12-13T10:18:32.273Z,22.13
2018-12-13T10:20:59.238Z,21.27
2018-12-13T10:23:26.240Z,14.73
2018-12-13T10:25:59.405Z,19.80
2018-12-13T10:28:22.239Z,20.73
2018-12-13T10:30:49.242Z,20.73
2018-12-13T10:33:16.300Z,21.37
2018-12-13T10:35:43.437Z,14.77
2018-12-13T10:38:10.475Z,21.20
2018-12-13T10:40:37.478Z,20.03
2018-12-13T10:43:04.554Z,23.77
2018-12-13T10:45:31.516Z,21.07
2018-12-13T10:47:58.475Z,20.17
2018-12-13T10:50:25.503Z,20.97
2018-12-13T10:52:52.516Z,22.83
2018-12-13T10:55:19.496Z,21.87
2018-12-13T10:57:46.516Z,20.80
2018-12-13T11:00:19.577Z,21.17
2018-12-13T11:03:14.935Z,20.33
2018-12-13T11:05:42.015Z,18.57
2018-12-13T11:08:08.975Z,20.50
2018-12-13T11:10:42.997Z,18.73
2018-12-13T11:13:09.995Z,20.13
2018-12-13T11:15:36.995Z,21.23
2018-12-13T11:18:04.114Z,20.33
2018-12-13T11:20:31.135Z,16.33
2018-12-13T11:22:58.136Z,16.63
2018-12-13T11:25:25.296Z,18.87
2018-12-13T11:28:24.995Z,18.67
2018-12-13T11:30:51.995Z,19.57
2018-12-13T11:33:18.994Z,19.37
2018-12-13T11:35:46.035Z,20.87
2018-12-13T11:38:13.114Z,18.67
2018-12-13T11:40:40.120Z,21.53
2018-12-13T11:43:07.134Z,20.47
2018-12-13T11:45:34.155Z,21.63
2018-12-13T11:48:01.196Z,21.10
2018-12-13T11:50:28.174Z,15.27
2018-12-13T11:52:55.557Z,17.90
2018-12-13T11:55:33.497Z,14.33
2018-12-13T11:58:02.036Z,18.90
2018-12-13T12:00:29.097Z,15.87
2018-12-13T12:02:55.995Z,18.87
2018-12-13T12:05:22.997Z,18.67
2018-12-13T12:07:50.057Z,19.20
2018-12-13T12:10:17.135Z,20.80
2018-12-13T12:12:44.196Z,16.50
2018-12-13T12:15:11.436Z,16.97
2018-12-13T12:17:39.096Z,18.87
2018-12-13T12:20:07.154Z,13.50
2018-12-13T12:22:34.195Z,17.87
2018-12-13T12:25:01.160Z,17.00
2018-12-13T12:27:28.115Z,18.33
2018-12-13T12:29:55.136Z,17.37
2018-12-13T12:32:29.015Z,16.13
2018-12-13T12:34:55.996Z,13.70
2018-12-13T12:37:23.016Z,18.97
2018-12-13T12:39:49.961Z,13.47
2018-12-13T12:42:16.957Z,17.23
2018-12-13T12:44:44.055Z,18.33
2018-12-13T12:47:11.059Z,16.40
2018-12-13T12:49:38.275Z,15.20
2018-12-13T12:52:12.195Z,14.10
2018-12-13T12:54:39.175Z,16.53
2018-12-13T12:57:06.175Z,15.27
2018-12-13T12:59:33.156Z,17.83
2018-12-13T13:02:00.456Z,15.47
2018-12-13T13:04:27.516Z,16.60
2018-12-13T13:06:54.492Z,17.17
2018-12-13T13:09:25.051Z,16.77
2018-12-13T13:11:50.637Z,16.50
2018-12-13T13:14:17.576Z,13.60
2018-12-13T13:16:44.636Z,15.00
2018-12-13T13:19:11.656Z,15.13
2018-12-13T13:21:38.656Z,16.93
2018-12-13T13:24:05.636Z,18.03
2018-12-13T13:26:32.696Z,15.30
2018-12-13T13:28:59.696Z,17.37
2018-12-13T13:31:26.696Z,13.83
2018-12-13T13:33:53.756Z,13.97
2018-12-13T13:36:27.915Z,15.43
2018-12-13T13:38:54.896Z,15.17
2018-12-13T13:41:21.917Z,16.97
2018-12-13T13:43:48.899Z,16.63
2018-12-13T13:46:15.835Z,14.80
2018-12-13T13:48:42.837Z,12.83
2018-12-13T13:51:09.897Z,13.47
2018-12-13T13:53:37.256Z,15.90
2018-12-13T13:56:04.375Z,16.30
2018-12-13T13:58:31.036Z,16.83
2018-12-13T14:00:58.375Z,15.87
2018-12-13T14:03:25.397Z,17.27
2018-12-13T14:05:52.437Z,16.37
2018-12-13T14:08:19.637Z,16.40
2018-12-13T14:10:46.695Z,18.10
2018-12-13T14:13:14.031Z,15.57
2018-12-13T14:15:41.036Z,13.63
2018-12-13T14:18:08.071Z,13.83
2018-12-13T14:20:35.210Z,17.03
2018-12-13T14:23:02.039Z,17.17
2018-12-13T14:25:28.891Z,16.87
2018-12-13T14:27:56.311Z,17.33
2018-12-13T14:30:23.271Z,17.40
2018-12-13T14:32:50.231Z,17.27
2018-12-13T14:35:17.350Z,14.67
2018-12-13T14:37:44.350Z,14.30
2018-12-13T14:40:11.350Z,16.40
2018-12-13T14:42:38.371Z,12.93
2018-12-13T14:45:05.470Z,13.43
2018-12-13T14:47:32.682Z,15.33
2018-12-13T14:49:59.720Z,14.17
2018-12-13T14:52:26.675Z,13.53
2018-12-13T14:54:54.177Z,17.23
2018-12-13T14:57:20.992Z,14.43
2018-12-13T14:59:48.021Z,18.00
2018-12-13T15:02:14.978Z,14.23
2018-12-13T15:04:41.986Z,16.23
2018-12-13T15:07:08.929Z,13.47
2018-12-13T15:09:35.808Z,17.50
2018-12-13T15:12:02.768Z,13.27
2018-12-13T15:14:29.826Z,15.00
2018-12-13T15:16:56.749Z,17.33
2018-12-13T15:19:23.729Z,18.70
2018-12-13T15:21:50.828Z,16.90
2018-12-13T15:24:18.210Z,15.43
2018-12-13T15:26:45.148Z,14.90
2018-12-13T15:29:12.919Z,17.43
2018-12-13T15:31:39.950Z,18.87
2018-12-13T15:34:06.998Z,18.43
2018-12-13T15:36:33.997Z,18.77
2018-12-13T15:39:00.917Z,16.33
2018-12-13T15:41:27.936Z,20.17
2018-12-13T15:43:54.860Z,20.30
2018-12-13T15:46:21.862Z,19.93
2018-12-13T15:48:55.825Z,15.33
2018-12-13T15:51:22.804Z,18.77
2018-12-13T15:53:49.796Z,18.17
2018-12-13T15:56:17.663Z,17.57
2018-12-13T15:58:44.676Z,17.13
2018-12-13T16:01:11.629Z,18.13
2018-12-13T16:03:38.482Z,15.43
2018-12-13T16:06:05.496Z,16.87
2018-12-13T16:08:32.457Z,15.43
2018-12-13T16:10:59.376Z,16.80
2018-12-13T16:13:26.376Z,16.60
2018-12-13T16:15:53.458Z,14.10
2018-12-13T16:18:20.480Z,16.17
2018-12-13T16:20:47.631Z,13.57
2018-12-13T16:23:14.605Z,14.87
2018-12-13T16:25:41.577Z,16.47
2018-12-13T16:28:08.599Z,15.40
2018-12-13T16:30:35.718Z,15.00
2018-12-13T16:33:02.677Z,17.73
2018-12-13T16:35:29.663Z,19.37
2018-12-13T16:38:03.577Z,14.67
2018-12-13T16:40:31.177Z,15.77
2018-12-13T16:42:58.218Z,19.70
2018-12-13T16:45:25.336Z,19.03
2018-12-13T16:47:52.358Z,20.03
2018-12-13T16:50:19.537Z,18.07
2018-12-13T16:52:46.527Z,19.53
2018-12-13T16:55:13.452Z,17.70
2018-12-13T16:57:40.890Z,19.20
2018-12-13T17:00:10.895Z,18.53
2018-12-13T17:02:37.749Z,20.00
2018-12-13T17:05:05.188Z,19.53
2018-12-13T17:07:32.287Z,20.53
2018-12-13T17:09:59.328Z,22.03
2018-12-13T17:12:26.309Z,19.07
2018-12-13T17:14:53.267Z,21.23
2018-12-13T17:17:20.328Z,18.93
2018-12-13T17:19:47.108Z,17.23
2018-12-13T17:22:14.151Z,20.03
2018-12-13T17:24:41.089Z,22.00
2018-12-13T17:27:08.157Z,22.00
2018-12-13T17:29:35.117Z,17.70
2018-12-13T17:32:02.384Z,20.63
2018-12-13T17:34:29.355Z,20.37
2018-12-13T17:36:56.336Z,21.37
2018-12-13T17:39:23.434Z,20.93
2018-12-13T17:41:50.375Z,19.40
2018-12-13T17:44:17.295Z,19.67
2018-12-13T17:46:44.297Z,19.10
2018-12-13T17:49:11.214Z,21.97
2018-12-13T17:51:38.235Z,19.73
2018-12-13T17:54:05.315Z,22.73
2018-12-13T17:56:32.334Z,22.87
2018-12-13T17:58:59.338Z,19.70
2018-12-13T18:01:26.314Z,21.40
2018-12-13T18:03:53.417Z,21.17
2018-12-13T18:06:20.434Z,21.20
2018-12-13T18:08:47.395Z,20.20
2018-12-13T18:11:14.434Z,19.30
2018-12-13T18:13:41.426Z,22.00
2018-12-13T18:16:08.503Z,21.40
2018-12-13T18:18:35.502Z,20.17
2018-12-13T18:21:02.544Z,19.50
2018-12-13T18:23:30.043Z,18.07
2018-12-13T18:25:57.122Z,19.70
2018-12-13T18:28:24.484Z,21.83
2018-12-13T18:30:51.463Z,19.40
2018-12-13T18:33:18.524Z,20.77
2018-12-13T18:35:45.563Z,20.77
2018-12-13T18:38:12.543Z,20.63
2018-12-13T18:40:40.024Z,21.93
2018-12-13T18:43:07.084Z,20.77
2018-12-13T18:45:36.217Z,20.10
2018-12-13T18:48:03.524Z,21.37
2018-12-13T18:50:30.645Z,21.57
2018-12-13T18:52:57.783Z,21.43
2018-12-13T18:55:24.797Z,20.90
2018-12-13T18:57:52.808Z,18.60
2018-12-13T19:00:19.641Z,21.97
2018-12-13T19:02:46.657Z,20.77
2018-12-13T19:05:13.594Z,20.93
2018-12-13T19:07:40.589Z,18.90
2018-12-13T19:10:07.635Z,21.20
2018-12-13T19:12:34.655Z,20.67
2018-12-13T19:15:01.903Z,21.13
2018-12-13T19:17:28.830Z,20.83
2018-12-13T19:19:55.850Z,20.13
2018-12-13T19:22:22.810Z,19.60
2018-12-13T19:24:49.810Z,18.37
2018-12-13T19:27:16.870Z,20.37
2018-12-13T19:29:43.929Z,20.07
2018-12-13T19:32:10.870Z,19.57
2018-12-13T19:34:38.251Z,19.80
2018-12-13T19:37:05.150Z,18.37
2018-12-13T19:39:32.092Z,20.10
2018-12-13T19:41:59.173Z,14.73
2018-12-13T19:44:26.130Z,18.27
2018-12-13T19:46:53.210Z,18.53
2018-12-13T19:49:20.649Z,17.63
2018-12-13T19:51:47.649Z,19.17
2018-12-13T19:54:14.930Z,20.93
2018-12-13T19:56:42.031Z,18.10
2018-12-13T19:59:09.042Z,20.33
2018-12-13T20:01:36.163Z,17.13
2018-12-13T20:04:03.322Z,19.63
2018-12-13T20:06:30.463Z,21.23
2018-12-13T20:08:57.835Z,16.73
2018-12-13T20:11:24.873Z,18.90
2018-12-13T20:13:52.047Z,18.43
2018-12-13T20:16:19.116Z,16.60
2018-12-13T20:18:46.378Z,19.57
2018-12-13T20:21:13.562Z,14.70
2018-12-13T20:23:41.674Z,19.60
2018-12-13T20:26:09.315Z,14.77
2018-12-13T20:28:36.433Z,19.33
2018-12-13T20:31:03.576Z,15.03
2018-12-13T20:33:30.635Z,18.47
2018-12-13T20:35:57.716Z,19.30
2018-12-13T20:38:24.977Z,16.17
2018-12-13T20:40:52.114Z,18.10
2018-12-13T20:43:19.135Z,18.53
2018-12-13T20:45:46.415Z,18.73
2018-12-13T20:48:13.417Z,18.33
2018-12-13T20:50:40.418Z,17.83
2018-12-13T20:53:07.776Z,18.10
2018-12-13T20:55:34.836Z,19.57
2018-12-13T20:58:01.815Z,20.80
2018-12-13T21:00:28.874Z,19.90
2018-12-13T21:02:55.894Z,19.80
2018-12-13T21:05:22.875Z,17.33
2018-12-13T21:07:52.075Z,17.30
2018-12-13T21:10:19.054Z,17.97
2018-12-13T21:12:46.134Z,17.10
2018-12-13T21:15:13.097Z,17.97
2018-12-13T21:17:40.294Z,17.27
2018-12-13T21:20:07.495Z,18.43
2018-12-13T21:22:34.634Z,11.97
2018-12-13T21:25:01.737Z,13.60
2018-12-13T21:27:28.739Z,16.97
2018-12-13T21:29:55.758Z,17.27
2018-12-13T21:32:22.729Z,17.70
2018-12-13T21:34:57.588Z,16.97
2018-12-13T21:37:24.547Z,17.47
2018-12-13T21:39:51.487Z,17.57
2018-12-13T21:42:18.507Z,18.57
2018-12-13T21:44:45.427Z,17.73
2018-12-13T21:47:12.446Z,17.93
2018-12-13T21:49:39.346Z,16.87
2018-12-13T21:52:06.408Z,17.93
2018-12-13T21:54:33.346Z,16.00
2018-12-13T21:57:00.848Z,17.43
2018-12-13T21:59:27.766Z,19.40
2018-12-13T22:01:54.866Z,18.77
2018-12-13T22:04:21.806Z,18.33
2018-12-13T22:06:48.806Z,18.50
2018-12-13T22:09:16.108Z,14.93
2018-12-13T22:11:43.126Z,16.63
2018-12-13T22:14:10.287Z,17.20
2018-12-13T22:16:37.286Z,16.67
2018-12-13T22:19:04.227Z,16.63
2018-12-13T22:21:31.346Z,16.63
2018-12-13T22:23:58.287Z,16.10
2018-12-13T22:26:25.587Z,16.87
2018-12-13T22:28:52.612Z,16.67
2018-12-13T22:31:19.607Z,16.47
2018-12-13T22:33:46.646Z,16.43
2018-12-13T22:36:13.646Z,17.07
2018-12-13T22:38:40.687Z,17.33
2018-12-13T22:41:07.687Z,16.70
2018-12-13T22:43:34.748Z,16.60
2018-12-13T22:46:03.627Z,17.33
2018-12-13T22:48:32.547Z,16.60
2018-12-13T22:51:00.370Z,16.33
2018-12-13T22:53:27.367Z,16.50
2018-12-13T22:55:54.387Z,16.10
2018-12-13T22:58:21.529Z,16.60
2018-12-13T23:00:48.608Z,15.53
2018-12-13T23:03:15.807Z,17.07
2018-12-13T23:05:42.847Z,16.43
2018-12-13T23:08:09.827Z,16.43
2018-12-13T23:10:43.747Z,15.80
2018-12-13T23:13:10.787Z,16.70
2018-12-13T23:15:37.767Z,15.70
2018-12-13T23:18:04.947Z,16.43
2018-12-13T23:20:32.067Z,15.30
2018-12-13T23:22:59.086Z,15.70
2018-12-13T23:25:26.067Z,16.17
2018-12-13T23:27:53.090Z,14.60
2018-12-13T23:30:20.067Z,15.67
2018-12-13T23:32:47.066Z,14.73
2018-12-13T23:35:14.006Z,15.13
2018-12-13T23:37:41.026Z,15.77
2018-12-13T23:40:08.027Z,16.00
2018-12-13T23:42:34.967Z,15.43
2018-12-13T23:45:02.027Z,15.50
2018-12-13T23:47:28.947Z,15.30
2018-12-13T23:49:55.927Z,15.10
2018-12-13T23:52:22.867Z,15.27
2018-12-13T23:54:49.887Z,14.23
2018-12-13T23:57:16.834Z,14.23
2018-12-13T23:59:43.747Z,13.87
